Archival Weather

Reid-Hillview of Santa Clara County

San Jose, California (KRHV)

Report from: Saturday, December 2, 2023 10:55 AM PST
Current time: Wednesday, April 24, 2024 11:47 AM PDT

Current weather – Weather history – Daily summaries
Weather forecast

Temperature17.0°C (62.6°F)
Dew point9.0°C (48.2°F)
Winds 3 kts (1.5 m/s, 3.5 mph) Southwest (230°)
Visibility10 mi. (16.1 km)
Clouds Scattered clouds 2,500 ft. (762 m)
Ceiling: Broken clouds 4,000 ft. (1,219 m)
Altimeter30.29 in.Hg (1026 mB)
Relative humidity59 %
Density altitude-20 ft. (-6 m)
Flight conditions Visual Meteorological Conditions
Raw dataKRHV 021855Z 23003KT 10SM SCT025 BKN040 17/09 A3029
An error has occurred. This application may no longer respond until reloaded. Reload 🗙